Terminal Aerodrome Forecast
Issued by NWS

Home | Current Version | Previous Version | Text Only | Print | Product List | Glossary On
Versions: 1 2 3 4 5 6 7 8 9 10 11 12 13 14 15 16 17 18 19 20 21 22 23 24 25 26 27 28 29
000
FTUS41 KBUF 041736
TAFJHW
TAF
KJHW 041736Z 0418/0518 28014G20KT P6SM BKN045
     FM042300 27011KT P6SM VCTS BKN045CB
     FM050300 25004KT P6SM VCSH BKN045
     FM050800 VRB03KT 2SM BR BKN005 BKN045
     FM051100 34004KT P6SM BKN035
     FM051600 30009KT P6SM BKN250
      AMD LTD TO CLD VIS AND WIND=

USA.gov is the U.S. government's official web portal to all federal, state and local government web resources and services.